Time;durP1;ratioP1;P1;durP2;ratioP2;P2;SDS_P1;SDS_P2;PMS_P1;PMS_P2;Temp;Humidity;BMP_temperature;BMP_pressure;BME280_temperature;BME280_humidity;BME280_pressure;Samples;Min_cycle;Max_cycle;Signal;HPM_P1;HPM_P2
2023/12/27 00:00:36;;;;;;;6.88;1.67;;;3.80;99.90;;;;;;5127930;27;20036;-73
2023/12/27 00:03:01;;;;;;;4.15;1.23;;;3.70;99.90;;;;;;5116426;27;20035;-73
2023/12/27 00:05:27;;;;;;;3.05;1.20;;;3.70;99.90;;;;;;5118492;27;20048;-73
2023/12/27 00:07:53;;;;;;;4.57;1.17;;;3.70;99.90;;;;;;5117973;27;20039;-73
2023/12/27 00:10:19;;;;;;;7.00;1.60;;;3.70;99.90;;;;;;5112669;27;20097;-73
2023/12/27 00:12:44;;;;;;;4.95;1.20;;;3.60;99.90;;;;;;5123330;27;20367;-73
2023/12/27 00:15:10;;;;;;;4.53;1.55;;;3.50;99.90;;;;;;5126587;27;20088;-73
2023/12/27 00:17:36;;;;;;;4.18;1.15;;;3.40;99.90;;;;;;5135670;27;20040;-73
2023/12/27 00:20:02;;;;;;;6.28;1.67;;;3.50;99.90;;;;;;5120323;27;20069;-73
2023/12/27 00:22:28;;;;;;;5.15;1.67;;;3.40;99.90;;;;;;5099738;28;20105;-73
2023/12/27 00:24:54;;;;;;;8.05;1.75;;;3.30;99.90;;;;;;5094815;27;20398;-73
2023/12/27 00:27:19;;;;;;;6.55;1.70;;;3.40;99.90;;;;;;5114629;27;20113;-73
2023/12/27 00:29:45;;;;;;;6.47;1.73;;;3.30;99.90;;;;;;5111380;28;20576;-73
2023/12/27 00:32:11;;;;;;;7.00;1.83;;;3.30;99.90;;;;;;5124052;27;20062;-73
2023/12/27 00:34:38;;;;;;;5.43;1.50;;;3.40;99.90;;;;;;5113607;27;20044;-73
2023/12/27 00:37:04;;;;;;;6.68;1.55;;;3.30;99.90;;;;;;5117264;27;20122;-73
2023/12/27 00:39:30;;;;;;;2.83;1.13;;;3.30;99.90;;;;;;5111528;28;20120;-73
2023/12/27 00:41:56;;;;;;;6.25;1.33;;;3.10;99.90;;;;;;5119631;27;20047;-73
2023/12/27 00:44:21;;;;;;;3.65;1.30;;;3.20;99.90;;;;;;5102694;28;20035;-73
2023/12/27 00:46:47;;;;;;;5.50;1.52;;;3.10;99.90;;;;;;5120004;28;20061;-73
2023/12/27 00:49:13;;;;;;;4.25;1.10;;;3.00;99.90;;;;;;5113001;27;20108;-73
2023/12/27 00:51:39;;;;;;;4.38;1.25;;;3.00;99.90;;;;;;5122008;27;20669;-73
2023/12/27 00:54:04;;;;;;;3.72;1.50;;;2.90;99.90;;;;;;5120522;27;20137;-73
2023/12/27 00:56:30;;;;;;;4.90;1.60;;;2.90;99.90;;;;;;5104738;27;20039;-74
2023/12/27 00:58:57;;;;;;;3.55;1.40;;;2.90;99.90;;;;;;5120773;27;20498;-73
2023/12/27 01:01:22;;;;;;;;;;;2.90;99.90;;;;;;5104417;28;20042;-73
2023/12/27 01:03:48;;;;;;;5.32;1.23;;;2.80;99.90;;;;;;5123103;27;19919;-74
2023/12/27 01:06:14;;;;;;;4.72;1.33;;;2.80;99.90;;;;;;5121114;27;20035;-74
2023/12/27 01:08:39;;;;;;;2.92;1.30;;;2.70;99.90;;;;;;5126732;27;20043;-73
2023/12/27 01:11:05;;;;;;;3.90;1.65;;;2.60;99.90;;;;;;5123603;27;20042;-74
2023/12/27 01:13:31;;;;;;;4.53;1.60;;;2.80;99.90;;;;;;5120551;27;20108;-74
2023/12/27 01:15:59;;;;;;;5.00;1.65;;;2.60;99.90;;;;;;5119274;27;20043;-73
2023/12/27 01:18:25;;;;;;;4.53;1.70;;;2.50;99.90;;;;;;5123731;27;20043;-73
2023/12/27 01:20:51;;;;;;;3.08;1.50;;;2.50;99.90;;;;;;5124812;27;20039;-73
2023/12/27 01:23:17;;;;;;;3.55;1.52;;;2.50;99.90;;;;;;5120707;27;20046;-74
2023/12/27 01:25:43;;;;;;;4.45;1.70;;;2.50;99.90;;;;;;5103401;27;20035;-73
2023/12/27 01:28:08;;;;;;;3.58;1.92;;;2.40;99.90;;;;;;5122723;27;20035;-73
2023/12/27 01:30:34;;;;;;;3.60;1.30;;;2.20;99.90;;;;;;5117828;27;20582;-73
2023/12/27 01:33:01;;;;;;;4.72;1.70;;;2.20;99.90;;;;;;5120172;27;20035;-74
2023/12/27 01:35:27;;;;;;;3.88;1.48;;;2.20;99.90;;;;;;5102639;27;20498;-74
2023/12/27 01:37:52;;;;;;;6.20;1.60;;;2.20;99.90;;;;;;5103902;28;20055;-75
2023/12/27 01:40:18;;;;;;;3.20;1.63;;;2.00;99.90;;;;;;5100197;27;20035;-75
2023/12/27 01:42:44;;;;;;;7.53;1.65;;;2.10;99.90;;;;;;5122718;27;20420;-75
2023/12/27 01:45:10;;;;;;;3.42;1.30;;;2.00;99.90;;;;;;5120466;27;20106;-74
2023/12/27 01:47:37;;;;;;;5.03;1.33;;;2.10;99.90;;;;;;5120203;27;20044;-75
2023/12/27 01:50:09;;;;;;;3.10;1.30;;;2.00;99.90;;;;;;5104315;28;20055;-75
2023/12/27 01:52:39;;;;;;;4.53;1.50;;;1.90;99.90;;;;;;5119353;27;20043;-75
2023/12/27 01:55:06;;;;;;;4.93;1.67;;;2.00;99.90;;;;;;5121159;27;20038;-75
2023/12/27 01:57:32;;;;;;;3.55;1.48;;;1.90;99.90;;;;;;5122585;27;20084;-75
2023/12/27 01:59:58;;;;;;;3.28;1.55;;;2.00;99.90;;;;;;5121076;27;20041;-75
2023/12/27 02:02:24;;;;;;;6.65;1.45;;;1.80;99.90;;;;;;5103734;27;20039;-75
2023/12/27 02:04:50;;;;;;;;;;;1.80;99.90;;;;;;5120619;27;20070;-75
2023/12/27 02:07:16;;;;;;;3.72;1.38;;;1.80;99.90;;;;;;5115666;27;20635;-75
2023/12/27 02:09:42;;;;;;;3.85;1.30;;;1.70;99.90;;;;;;5142827;27;20031;-75
2023/12/27 02:12:08;;;;;;;3.75;1.15;;;1.90;99.90;;;;;;5119277;27;20020;-75
2023/12/27 02:14:34;;;;;;;3.40;1.00;;;1.70;99.90;;;;;;5099941;27;20437;-75
2023/12/27 02:17:00;;;;;;;3.75;1.30;;;1.80;99.90;;;;;;5119161;27;20050;-75
2023/12/27 02:19:28;;;;;;;4.85;1.48;;;1.80;99.90;;;;;;5121491;27;20031;-74
2023/12/27 02:21:54;;;;;;;2.70;1.27;;;1.80;99.90;;;;;;5119962;27;20058;-74
2023/12/27 02:24:22;;;;;;;4.40;1.30;;;1.70;99.90;;;;;;5104325;27;20039;-74
2023/12/27 02:26:48;;;;;;;4.28;1.23;;;1.70;99.90;;;;;;5122794;27;20050;-75
2023/12/27 02:29:14;;;;;;;4.90;1.20;;;1.80;99.90;;;;;;5117287;27;20035;-74
2023/12/27 02:31:40;;;;;;;;;;;1.80;99.90;;;;;;5101552;27;20043;-74
2023/12/27 02:34:06;;;;;;;4.07;1.30;;;1.60;99.90;;;;;;5121736;27;19920;-75
2023/12/27 02:36:32;;;;;;;3.05;1.45;;;1.60;99.90;;;;;;5119023;27;20144;-74
2023/12/27 02:38:58;;;;;;;2.80;1.27;;;1.60;99.90;;;;;;5118082;27;20028;-75
2023/12/27 02:41:23;;;;;;;3.10;1.13;;;1.60;99.90;;;;;;5098911;27;20407;-75
2023/12/27 02:43:49;;;;;;;3.97;1.30;;;1.60;99.90;;;;;;5119294;27;20107;-75
2023/12/27 02:46:15;;;;;;;2.97;1.17;;;1.40;99.90;;;;;;5103148;27;20110;-75
2023/12/27 02:48:40;;;;;;;2.20;1.02;;;1.50;99.90;;;;;;5101048;27;20543;-75
2023/12/27 02:51:06;;;;;;;3.03;1.10;;;1.50;99.90;;;;;;5119900;27;20402;-75
2023/12/27 02:53:32;;;;;;;2.10;1.10;;;1.40;99.90;;;;;;5120030;27;20071;-74
2023/12/27 02:55:57;;;;;;;2.15;0.93;;;1.50;99.90;;;;;;5104594;27;20383;-74
2023/12/27 02:58:23;;;;;;;2.17;1.10;;;1.30;99.90;;;;;;5100285;28;20046;-74
2023/12/27 03:00:49;;;;;;;2.17;1.10;;;1.30;99.90;;;;;;5117630;27;20039;-75
2023/12/27 03:03:15;;;;;;;1.85;0.98;;;1.30;99.90;;;;;;5121384;27;20553;-74
2023/12/27 03:05:41;;;;;;;4.40;1.20;;;1.40;99.90;;;;;;5120721;27;20208;-75
2023/12/27 03:08:07;;;;;;;2.13;1.10;;;1.30;99.90;;;;;;5097707;27;20100;-75
2023/12/27 03:10:32;;;;;;;2.33;1.02;;;1.40;99.90;;;;;;5114159;27;20032;-74
2023/12/27 03:12:58;;;;;;;2.33;1.15;;;1.30;99.90;;;;;;5100333;27;20467;-75
2023/12/27 03:15:24;;;;;;;2.15;1.00;;;1.40;99.90;;;;;;5120471;27;20035;-75
2023/12/27 03:17:50;;;;;;;3.80;1.45;;;1.30;99.90;;;;;;5122547;27;20050;-74
2023/12/27 03:20:15;;;;;;;2.58;1.50;;;1.30;99.90;;;;;;5123376;27;20027;-74
2023/12/27 03:22:41;;;;;;;4.20;1.50;;;1.30;99.90;;;;;;5119867;27;20039;-75
2023/12/27 03:25:07;;;;;;;2.35;1.25;;;1.30;99.90;;;;;;5104401;27;20779;-75
2023/12/27 03:27:32;;;;;;;4.43;1.60;;;1.40;99.90;;;;;;5121241;27;20120;-75
2023/12/27 03:29:58;;;;;;;4.25;1.52;;;1.40;99.90;;;;;;5118207;27;20043;-74
2023/12/27 03:32:24;;;;;;;2.38;1.20;;;1.50;99.90;;;;;;5095303;28;20040;-74
2023/12/27 03:34:50;;;;;;;2.85;1.05;;;1.50;99.90;;;;;;5094336;27;21156;-75
2023/12/27 03:37:16;;;;;;;3.70;2.08;;;1.50;99.90;;;;;;5111699;27;20036;-75
2023/12/27 03:39:46;;;;;;;1.88;0.75;;;1.40;99.90;;;;;;5102887;27;20367;-75
2023/12/27 03:42:12;;;;;;;4.22;1.10;;;1.40;99.90;;;;;;5110998;27;20096;-74
2023/12/27 03:44:38;;;;;;;3.47;1.00;;;1.50;99.90;;;;;;5114169;27;20131;-75
2023/12/27 03:47:04;;;;;;;3.20;1.20;;;1.50;99.90;;;;;;5123900;27;20062;-75
2023/12/27 03:49:30;;;;;;;2.70;1.13;;;1.60;99.90;;;;;;5107893;28;20577;-75
2023/12/27 03:51:56;;;;;;;4.07;1.25;;;1.60;99.90;;;;;;5091945;27;20032;-75
2023/12/27 03:54:21;;;;;;;4.43;1.17;;;1.70;99.90;;;;;;5123663;27;20119;-74
2023/12/27 03:56:47;;;;;;;5.35;1.40;;;1.60;99.90;;;;;;5142706;27;20036;-75
2023/12/27 03:59:14;;;;;;;3.78;1.23;;;1.90;99.90;;;;;;5111620;27;20036;-75
2023/12/27 04:01:40;;;;;;;3.38;1.00;;;1.90;99.90;;;;;;5107368;27;20031;-75
2023/12/27 04:04:07;;;;;;;2.95;1.10;;;1.80;99.90;;;;;;5138855;27;20113;-75
2023/12/27 04:06:33;;;;;;;2.03;1.00;;;1.80;99.90;;;;;;5110989;27;20047;-74
2023/12/27 04:08:58;;;;;;;3.35;0.77;;;1.90;99.90;;;;;;5118786;27;20035;-74
2023/12/27 04:11:24;;;;;;;2.97;1.10;;;1.70;99.90;;;;;;5118369;27;20040;-75
2023/12/27 04:13:50;;;;;;;5.40;1.60;;;1.60;99.90;;;;;;5122363;27;20070;-75
2023/12/27 04:16:15;;;;;;;4.97;1.50;;;1.60;99.90;;;;;;5127995;27;20092;-74
2023/12/27 04:18:41;;;;;;;3.95;1.20;;;1.70;99.90;;;;;;5120571;27;20122;-74
2023/12/27 04:21:07;;;;;;;2.30;1.20;;;1.70;99.90;;;;;;5110950;27;20103;-74
2023/12/27 04:23:32;;;;;;;2.30;1.00;;;1.70;99.90;;;;;;5066604;28;20394;-74
2023/12/27 04:25:58;;;;;;;2.35;0.95;;;1.80;99.90;;;;;;5126412;27;20259;-74
2023/12/27 04:28:24;;;;;;;2.58;0.90;;;1.90;99.90;;;;;;5086340;28;20043;-74
2023/12/27 04:30:49;;;;;;;2.03;1.08;;;1.90;99.90;;;;;;5105716;27;20100;-74
2023/12/27 04:33:15;;;;;;;3.13;1.20;;;1.90;99.90;;;;;;5111775;27;20074;-74
2023/12/27 04:35:42;;;;;;;3.58;1.20;;;1.90;99.90;;;;;;5093416;28;20043;-74
2023/12/27 04:38:13;;;;;;;3.47;1.67;;;2.10;99.90;;;;;;5100062;28;20115;-74
2023/12/27 04:40:43;;;;;;;3.03;1.20;;;2.20;99.90;;;;;;5109104;28;20092;-73
2023/12/27 04:43:09;;;;;;;4.13;1.60;;;2.00;99.90;;;;;;5116375;27;20126;-73
2023/12/27 04:45:34;;;;;;;2.83;1.20;;;2.30;99.90;;;;;;5098150;28;20566;-73
2023/12/27 04:48:00;;;;;;;3.38;1.15;;;2.30;99.90;;;;;;5110232;28;20969;-73
2023/12/27 04:50:26;;;;;;;5.38;1.30;;;2.20;99.90;;;;;;5107040;28;20059;-73
2023/12/27 04:52:52;;;;;;;2.65;1.20;;;2.30;99.90;;;;;;5107579;28;20422;-73
2023/12/27 04:55:17;;;;;;;4.97;1.38;;;2.50;99.90;;;;;;5111530;28;20048;-73
2023/12/27 04:57:43;;;;;;;4.35;1.60;;;2.40;99.90;;;;;;5102434;28;20077;-73
2023/12/27 05:00:09;;;;;;;4.05;1.52;;;2.30;99.90;;;;;;5095728;28;20052;-73
2023/12/27 05:02:34;;;;;;;3.35;1.35;;;2.50;99.90;;;;;;5092095;28;20047;-73
2023/12/27 05:05:00;;;;;;;3.38;1.15;;;2.30;99.90;;;;;;5110331;28;20031;-73
2023/12/27 05:07:26;;;;;;;2.60;1.40;;;2.30;99.90;;;;;;5105315;28;20082;-73
2023/12/27 05:09:51;;;;;;;3.63;1.50;;;2.50;99.90;;;;;;5144758;27;20047;-73
2023/12/27 05:12:17;;;;;;;3.83;1.35;;;2.30;99.90;;;;;;5100509;28;20044;-73
2023/12/27 05:14:44;;;;;;;3.50;1.45;;;2.20;99.90;;;;;;5089623;28;20039;-73
2023/12/27 05:17:10;;;;;;;3.40;1.13;;;2.30;99.90;;;;;;5066852;28;20071;-73
2023/12/27 05:19:38;;;;;;;3.95;1.30;;;2.50;99.90;;;;;;5120523;28;20120;-73
2023/12/27 05:22:04;;;;;;;2.42;0.90;;;2.20;99.90;;;;;;5112887;28;20066;-73
2023/12/27 05:24:30;;;;;;;5.30;1.40;;;2.40;99.90;;;;;;5081638;28;20483;-73
2023/12/27 05:26:56;;;;;;;2.38;1.13;;;2.30;99.90;;;;;;5119149;28;20040;-73
2023/12/27 05:29:21;;;;;;;5.25;1.55;;;2.40;99.90;;;;;;5110533;28;20512;-73
2023/12/27 05:31:47;;;;;;;4.28;1.63;;;2.20;99.90;;;;;;5092138;28;20043;-73
2023/12/27 05:34:13;;;;;;;4.40;1.42;;;2.50;99.90;;;;;;5130846;27;20043;-73
2023/12/27 05:36:38;;;;;;;5.07;1.67;;;2.40;99.90;;;;;;5124521;27;20036;-73
2023/12/27 05:39:04;;;;;;;7.10;2.95;;;2.40;99.90;;;;;;5107153;28;20052;-73
2023/12/27 05:41:30;;;;;;;2.65;1.20;;;2.60;99.90;;;;;;5116838;27;20043;-73
2023/12/27 05:43:56;;;;;;;3.50;1.40;;;2.50;99.90;;;;;;5113628;27;20043;-73
2023/12/27 05:46:22;;;;;;;3.53;1.30;;;2.40;99.90;;;;;;5118796;27;20074;-73
2023/12/27 05:48:47;;;;;;;4.53;1.77;;;2.60;99.90;;;;;;5108469;27;20513;-73
2023/12/27 05:51:13;;;;;;;3.00;1.35;;;2.40;99.90;;;;;;5106181;27;20048;-73
2023/12/27 05:53:39;;;;;;;3.72;1.55;;;2.70;99.90;;;;;;5112526;27;20573;-73
2023/12/27 05:56:06;;;;;;;3.72;1.73;;;2.70;99.90;;;;;;5101718;27;20046;-73
2023/12/27 05:58:32;;;;;;;4.68;1.52;;;2.60;99.90;;;;;;5099440;27;20550;-73
2023/12/27 06:00:57;;;;;;;4.05;1.40;;;2.70;99.90;;;;;;5132511;27;20043;-73
2023/12/27 06:03:23;;;;;;;4.65;1.50;;;2.60;99.90;;;;;;5130822;27;20043;-73
2023/12/27 06:05:49;;;;;;;3.47;1.20;;;2.70;99.90;;;;;;5113345;27;20047;-73
2023/12/27 06:08:18;;;;;;;2.83;1.50;;;2.70;99.90;;;;;;5131196;27;20116;-73
2023/12/27 06:10:45;;;;;;;4.03;1.52;;;2.60;99.90;;;;;;5117215;27;20040;-73
2023/12/27 06:13:10;;;;;;;;;;;2.70;99.90;;;;;;5113096;27;20044;-73
2023/12/27 06:15:36;;;;;;;5.32;1.40;;;2.60;99.90;;;;;;5104235;27;19927;-73
2023/12/27 06:18:02;;;;;;;4.80;1.58;;;2.70;99.90;;;;;;5113702;27;20044;-74
2023/12/27 06:20:27;;;;;;;4.88;1.65;;;2.80;99.90;;;;;;5114058;27;20035;-74
2023/12/27 06:22:53;;;;;;;5.15;1.75;;;3.00;99.90;;;;;;5125261;27;20043;-74
2023/12/27 06:25:18;;;;;;;4.18;1.77;;;3.00;99.90;;;;;;5100495;27;20056;-75
2023/12/27 06:27:44;;;;;;;5.10;2.05;;;2.80;99.90;;;;;;5109192;27;20043;-74
2023/12/27 06:30:10;;;;;;;7.63;2.65;;;3.10;99.90;;;;;;5142335;27;20539;-72
2023/12/27 06:32:37;;;;;;;8.05;2.08;;;3.10;99.90;;;;;;5113574;27;20071;-72
2023/12/27 06:35:03;;;;;;;5.50;2.42;;;3.00;99.90;;;;;;5115863;27;20071;-72
2023/12/27 06:37:28;;;;;;;3.38;1.80;;;3.20;99.90;;;;;;5098926;28;20094;-72
2023/12/27 06:39:54;;;;;;;3.92;1.55;;;3.10;99.90;;;;;;5108915;27;20122;-72
2023/12/27 06:42:19;;;;;;;4.22;1.65;;;3.10;99.90;;;;;;5093336;27;20039;-72
2023/12/27 06:44:45;;;;;;;4.72;1.48;;;3.30;99.90;;;;;;5102954;28;20055;-72
2023/12/27 06:47:11;;;;;;;4.65;1.70;;;3.20;99.90;;;;;;5123119;27;20112;-72
2023/12/27 06:49:37;;;;;;;8.27;2.20;;;3.30;99.90;;;;;;5111576;28;20051;-72
2023/12/27 06:52:03;;;;;;;5.20;1.45;;;3.30;99.90;;;;;;5099713;27;20039;-72
2023/12/27 06:54:28;;;;;;;6.05;1.60;;;3.40;99.90;;;;;;5096464;27;20386;-72
2023/12/27 06:56:54;;;;;;;6.53;2.17;;;3.60;99.90;;;;;;5130547;27;20040;-72
2023/12/27 06:59:19;;;;;;;7.45;1.77;;;3.50;99.90;;;;;;5107536;27;20502;-72
2023/12/27 07:01:45;;;;;;;5.15;1.30;;;3.60;99.90;;;;;;5090471;28;20417;-73
2023/12/27 07:04:11;;;;;;;6.93;1.77;;;3.50;99.90;;;;;;5113169;27;20043;-73
2023/12/27 07:06:38;;;;;;;6.78;1.85;;;3.60;99.90;;;;;;5101980;28;20036;-73
2023/12/27 07:09:04;;;;;;;5.57;1.80;;;3.60;99.90;;;;;;5093130;27;20039;-74
2023/12/27 07:11:30;;;;;;;5.07;1.80;;;3.60;99.90;;;;;;5100701;28;20065;-74
2023/12/27 07:13:56;;;;;;;6.75;2.00;;;3.70;99.90;;;;;;5099570;27;20040;-73
2023/12/27 07:16:21;;;;;;;5.53;1.70;;;3.70;99.90;;;;;;5110377;27;20035;-74
2023/12/27 07:18:47;;;;;;;5.20;1.67;;;3.90;99.90;;;;;;5106525;27;20036;-73
2023/12/27 07:21:13;;;;;;;4.63;1.50;;;3.80;99.90;;;;;;5121276;27;20043;-73
2023/12/27 07:23:39;;;;;;;5.57;1.90;;;4.00;99.90;;;;;;5121359;27;20043;-74
2023/12/27 07:26:04;;;;;;;7.00;2.13;;;3.90;99.90;;;;;;5111545;27;20057;-73
2023/12/27 07:28:30;;;;;;;6.78;1.77;;;4.00;99.90;;;;;;5108064;28;20114;-73
2023/12/27 07:30:57;;;;;;;5.03;1.67;;;4.10;99.90;;;;;;5111706;27;20043;-74
2023/12/27 07:33:23;;;;;;;8.07;1.90;;;4.00;99.90;;;;;;5110755;28;20032;-73
2023/12/27 07:35:49;;;;;;;8.40;1.98;;;4.00;99.90;;;;;;5108636;27;20047;-74
2023/12/27 07:38:14;;;;;;;6.57;1.80;;;4.10;99.90;;;;;;5092584;28;20040;-73
2023/12/27 07:40:41;;;;;;;5.70;1.88;;;4.10;99.90;;;;;;5134881;27;20039;-73
2023/12/27 07:43:09;;;;;;;5.00;1.70;;;4.10;99.90;;;;;;5093571;27;20108;-73
2023/12/27 07:45:35;;;;;;;6.50;2.22;;;4.20;99.90;;;;;;5097220;28;20126;-73
2023/12/27 07:48:01;;;;;;;8.43;2.58;;;4.10;99.90;;;;;;5119414;27;20130;-73
2023/12/27 07:50:26;;;;;;;10.60;2.30;;;4.20;99.90;;;;;;5108665;27;20102;-73
2023/12/27 07:52:52;;;;;;;5.82;2.15;;;4.30;99.90;;;;;;5110763;27;20043;-73
2023/12/27 07:55:18;;;;;;;7.03;2.30;;;4.20;99.90;;;;;;5095359;27;20058;-73
2023/12/27 07:57:45;;;;;;;13.40;2.30;;;4.30;99.90;;;;;;5097245;28;20070;-75
2023/12/27 08:00:15;;;;;;;8.45;3.08;;;4.20;99.90;;;;;;5068543;28;20047;-74
2023/12/27 08:02:41;;;;;;;7.53;2.30;;;4.20;99.90;;;;;;5116197;27;20066;-74
2023/12/27 08:05:07;;;;;;;6.53;2.20;;;4.30;99.90;;;;;;5104729;27;20043;-74
2023/12/27 08:07:33;;;;;;;5.63;2.15;;;4.40;99.90;;;;;;5109967;28;20043;-74
2023/12/27 08:09:59;;;;;;;9.00;2.45;;;4.30;99.90;;;;;;5113493;27;20191;-75
2023/12/27 08:12:24;;;;;;;8.48;2.90;;;4.30;99.90;;;;;;5108530;27;20621;-75
2023/12/27 08:14:50;;;;;;;9.10;3.00;;;4.40;99.90;;;;;;5102686;28;20506;-75
2023/12/27 08:17:16;;;;;;;7.93;3.78;;;4.30;99.90;;;;;;5079786;28;20044;-75
2023/12/27 08:19:41;;;;;;;11.13;3.22;;;4.40;99.90;;;;;;5091061;28;20088;-75
2023/12/27 08:22:07;;;;;;;8.98;3.55;;;4.50;99.90;;;;;;5118084;27;20050;-76
2023/12/27 08:24:33;;;;;;;8.05;3.33;;;4.50;99.90;;;;;;5111448;27;20042;-75
2023/12/27 08:26:59;;;;;;;7.22;3.00;;;4.40;99.90;;;;;;5126167;27;20082;-75
2023/12/27 08:29:25;;;;;;;10.75;3.20;;;4.40;99.90;;;;;;5111786;27;20047;-76
2023/12/27 08:31:50;;;;;;;12.10;3.65;;;4.30;99.90;;;;;;5127541;27;20047;-75
2023/12/27 08:34:16;;;;;;;11.23;4.13;;;4.40;99.90;;;;;;5126968;27;20036;-75
2023/12/27 08:36:45;;;;;;;10.27;3.40;;;4.40;99.90;;;;;;5093782;28;20066;-75
2023/12/27 08:39:11;;;;;;;8.02;3.10;;;4.50;99.90;;;;;;5110172;28;20510;-75
2023/12/27 08:41:37;;;;;;;;;;;4.50;99.90;;;;;;5110424;28;20038;-76
2023/12/27 08:44:03;;;;;;;6.70;3.20;;;4.50;99.90;;;;;;5096235;28;19920;-75
2023/12/27 08:46:28;;;;;;;8.60;3.60;;;4.50;99.90;;;;;;5125657;27;20075;-78
2023/12/27 08:48:54;;;;;;;7.38;3.38;;;4.40;99.90;;;;;;5094348;28;20500;-78
2023/12/27 08:51:20;;;;;;;8.27;3.40;;;4.40;99.90;;;;;;5139619;27;20043;-78
2023/12/27 08:53:45;;;;;;;7.82;3.28;;;4.40;99.90;;;;;;5089798;28;20051;-76
2023/12/27 08:56:11;;;;;;;10.98;4.15;;;4.60;99.90;;;;;;5099795;28;20059;-76
2023/12/27 08:58:37;;;;;;;10.02;4.30;;;4.50;99.90;;;;;;5110684;28;20043;-76
2023/12/27 09:01:03;;;;;;;10.88;3.67;;;4.60;99.90;;;;;;5078308;28;20031;-76
2023/12/27 09:03:29;;;;;;;10.00;3.95;;;4.50;99.90;;;;;;5107192;28;20502;-76
2023/12/27 09:05:55;;;;;;;7.50;3.33;;;4.50;99.90;;;;;;5120617;28;20119;-76
2023/12/27 09:08:20;;;;;;;9.70;3.58;;;4.50;99.90;;;;;;5106806;28;20044;-76
2023/12/27 09:10:46;;;;;;;9.15;4.30;;;4.60;99.90;;;;;;5095022;28;20735;-76
2023/12/27 09:13:12;;;;;;;9.20;3.58;;;4.50;99.90;;;;;;5092207;28;20104;-76
2023/12/27 09:15:37;;;;;;;8.63;3.70;;;4.60;99.90;;;;;;5102244;28;20075;-76
2023/12/27 09:18:03;;;;;;;8.80;3.78;;;4.60;99.90;;;;;;5106511;27;20043;-76
2023/12/27 09:20:29;;;;;;;10.23;3.22;;;4.60;99.90;;;;;;5125622;27;20044;-76
2023/12/27 09:22:55;;;;;;;8.30;2.80;;;4.60;99.90;;;;;;5073509;27;20407;-75
2023/12/27 09:25:20;;;;;;;9.52;2.78;;;4.70;99.90;;;;;;5122946;27;20106;-75
2023/12/27 09:27:46;;;;;;;8.50;2.65;;;4.70;99.90;;;;;;5109678;27;20126;-76
2023/12/27 09:30:12;;;;;;;9.60;2.97;;;4.70;99.90;;;;;;5113581;28;20573;-75
2023/12/27 09:32:39;;;;;;;7.03;3.08;;;4.70;99.90;;;;;;5113661;27;20146;-76
2023/12/27 09:35:04;;;;;;;;;;;4.80;99.90;;;;;;5104744;27;20518;-75
2023/12/27 09:37:30;;;;;;;10.13;2.70;;;4.80;99.90;;;;;;5096340;28;19919;-76
2023/12/27 09:39:56;;;;;;;9.02;2.63;;;4.80;99.90;;;;;;5095668;27;20036;-77
2023/12/27 09:42:22;;;;;;;9.95;2.30;;;4.90;99.90;;;;;;5089560;28;20042;-77
2023/12/27 09:44:50;;;;;;;9.38;2.45;;;4.80;99.90;;;;;;5133171;27;20116;-77
2023/12/27 09:47:17;;;;;;;10.52;2.80;;;5.00;99.90;;;;;;5149914;27;20141;-77
2023/12/27 09:49:43;;;;;;;5.05;2.33;;;5.00;99.90;;;;;;5101462;28;20092;-77
2023/12/27 09:52:09;;;;;;;6.03;2.53;;;5.00;99.90;;;;;;5112907;28;20044;-77
2023/12/27 09:54:35;;;;;;;6.00;2.15;;;4.90;99.90;;;;;;5106257;27;20046;-76
2023/12/27 09:57:04;;;;;;;6.65;2.45;;;4.90;99.90;;;;;;5112808;27;20036;-77
2023/12/27 09:59:36;;;;;;;8.57;2.70;;;5.10;99.90;;;;;;5123242;27;20043;-77
2023/12/27 10:02:04;;;;;;;11.00;2.40;;;5.00;99.90;;;;;;5133407;27;20043;-76
2023/12/27 10:04:47;;;;;;;7.80;2.28;;;5.20;99.90;;;;;;5127748;27;20077;-76
2023/12/27 10:07:14;;;;;;;9.30;2.53;;;5.20;99.90;;;;;;5132229;27;20123;-76
2023/12/27 10:09:41;;;;;;;10.90;2.90;;;5.20;99.90;;;;;;5096289;27;20042;-77
2023/12/27 10:12:12;;;;;;;10.23;3.40;;;5.30;99.90;;;;;;5131308;27;20133;-77
2023/12/27 10:14:40;;;;;;;6.72;2.38;;;5.20;99.90;;;;;;5124603;27;20035;-77
2023/12/27 10:17:06;;;;;;;10.60;2.72;;;5.30;99.90;;;;;;5095377;28;20047;-77
2023/12/27 10:19:45;;;;;;;9.82;3.45;;;5.30;99.90;;;;;;5096953;28;20400;-77
2023/12/27 10:22:12;;;;;;;9.98;2.78;;;5.30;99.90;;;;;;5122650;27;20043;-76
2023/12/27 10:24:39;;;;;;;9.23;2.80;;;5.30;99.90;;;;;;5126714;27;20486;-76
2023/12/27 10:27:06;;;;;;;7.18;2.67;;;5.50;99.90;;;;;;5114045;28;20048;-76
2023/12/27 10:29:32;;;;;;;10.93;2.97;;;5.60;99.90;;;;;;5095266;28;20076;-76
2023/12/27 10:32:02;;;;;;;10.43;3.30;;;5.60;99.90;;;;;;5104763;27;20046;-76
2023/12/27 10:34:28;;;;;;;10.13;3.67;;;5.50;99.90;;;;;;5131670;27;20058;-74
2023/12/27 10:36:55;;;;;;;8.85;3.30;;;5.50;99.90;;;;;;5112347;28;20047;-76
2023/12/27 10:39:21;;;;;;;9.18;3.20;;;5.70;99.90;;;;;;5112444;28;20127;-76
2023/12/27 10:41:47;;;;;;;8.27;3.50;;;5.70;99.90;;;;;;5123346;27;20542;-76
2023/12/27 10:44:17;;;;;;;11.98;4.38;;;5.80;99.90;;;;;;5113714;27;20130;-76
2023/12/27 10:46:43;;;;;;;10.77;3.88;;;5.60;99.90;;;;;;5114060;27;20059;-76
2023/12/27 10:49:12;;;;;;;10.35;4.10;;;5.70;99.90;;;;;;5111680;28;20070;-77
2023/12/27 10:51:40;;;;;;;11.10;4.28;;;5.80;99.90;;;;;;5120505;27;20057;-75
2023/12/27 10:54:06;;;;;;;12.82;3.92;;;5.70;99.90;;;;;;5111768;28;20051;-77
2023/12/27 10:56:37;;;;;;;11.32;4.45;;;5.80;99.90;;;;;;5125285;27;20459;-74
2023/12/27 10:59:06;;;;;;;13.68;4.47;;;5.90;99.90;;;;;;5132491;27;20470;-77
2023/12/27 11:01:34;;;;;;;10.68;4.32;;;5.80;99.90;;;;;;5130136;27;20524;-77
2023/12/27 11:04:09;;;;;;;11.52;4.53;;;5.80;99.90;;;;;;5132127;27;20066;-75
2023/12/27 11:06:39;;;;;;;14.50;4.85;;;5.90;99.90;;;;;;5103934;27;20390;-76
2023/12/27 11:09:09;;;;;;;16.77;4.57;;;6.00;99.90;;;;;;5130838;27;20051;-74
2023/12/27 11:11:40;;;;;;;12.93;5.05;;;5.90;99.90;;;;;;5130186;27;20095;-74
2023/12/27 11:14:11;;;;;;;14.65;7.05;;;5.90;99.90;;;;;;5127538;27;20054;-75
2023/12/27 11:16:42;;;;;;;13.40;4.72;;;6.00;99.90;;;;;;5109232;27;20043;-75
2023/12/27 11:19:08;;;;;;;15.63;5.68;;;5.90;99.90;;;;;;5090554;28;20040;-76
2023/12/27 11:21:34;;;;;;;11.10;4.65;;;5.90;99.90;;;;;;5107923;27;20556;-76
2023/12/27 11:24:00;;;;;;;;;;;5.90;99.90;;;;;;5088130;28;20047;-76
2023/12/27 11:26:27;;;;;;;14.80;5.82;;;5.90;99.90;;;;;;5092280;27;19923;-76
2023/12/27 11:28:53;;;;;;;15.55;7.70;;;6.00;99.90;;;;;;5117439;27;20082;-75
2023/12/27 11:31:19;;;;;;;13.13;5.30;;;5.90;99.90;;;;;;5121965;27;20075;-76
2023/12/27 11:33:46;;;;;;;8.40;4.45;;;5.80;99.90;;;;;;5110283;28;20040;-74
2023/12/27 11:36:12;;;;;;;15.93;5.10;;;5.90;99.90;;;;;;5110940;27;20123;-73
2023/12/27 11:38:39;;;;;;;21.15;8.52;;;6.00;99.90;;;;;;5077602;28;20074;-74
2023/12/27 11:41:06;;;;;;;29.05;10.27;;;6.10;99.90;;;;;;5111208;27;20047;-74
2023/12/27 11:43:57;;;;;;;15.65;7.53;;;6.10;99.90;;;;;;5109310;27;20043;-72
2023/12/27 11:46:27;;;;;;;12.15;6.10;;;6.10;99.90;;;;;;5098290;28;20062;-72
2023/12/27 11:48:53;;;;;;;17.77;5.88;;;6.10;99.90;;;;;;5119500;27;20105;-72
2023/12/27 11:51:38;;;;;;;14.63;6.38;;;6.20;99.90;;;;;;5110047;27;20048;-72
2023/12/27 11:54:08;;;;;;;13.68;6.30;;;6.00;99.90;;;;;;5114738;27;20043;-74
2023/12/27 11:56:35;;;;;;;14.38;5.60;;;5.90;99.90;;;;;;5114484;27;20072;-73
2023/12/27 11:59:02;;;;;;;13.43;5.50;;;5.80;99.90;;;;;;5137867;27;20045;-71
2023/12/27 12:01:36;;;;;;;18.58;6.90;;;6.10;99.90;;;;;;5101208;27;20039;-71
2023/12/27 12:04:14;;;;;;;13.88;6.10;;;6.20;99.90;;;;;;5110627;27;20053;-71
2023/12/27 12:06:55;;;;;;;14.52;6.00;;;5.70;99.90;;;;;;5084700;28;20097;-71
2023/12/27 12:09:38;;;;;;;15.73;5.80;;;5.60;99.90;;;;;;5119321;27;20043;-70
2023/12/27 12:12:24;;;;;;;17.40;6.72;;;5.70;99.90;;;;;;5108235;27;20095;-70
2023/12/27 12:14:51;;;;;;;14.05;6.40;;;5.70;99.90;;;;;;5105511;28;20062;-70
2023/12/27 12:17:19;;;;;;;14.75;5.80;;;5.60;99.90;;;;;;5100881;27;20035;-70
2023/12/27 12:19:46;;;;;;;14.32;6.50;;;5.90;99.90;;;;;;5111746;27;20608;-70
2023/12/27 12:22:16;;;;;;;12.85;6.28;;;5.90;99.90;;;;;;5133546;27;20046;-70
2023/12/27 12:24:42;;;;;;;13.32;5.85;;;5.60;99.90;;;;;;5113236;27;20070;-69
2023/12/27 12:27:08;;;;;;;;;;;5.60;99.90;;;;;;5071312;28;20459;-69
2023/12/27 12:29:34;;;;;;;11.65;6.00;;;6.10;99.90;;;;;;5091974;28;19967;-69
2023/12/27 12:31:59;;;;;;;10.13;6.00;;;6.00;99.90;;;;;;5110208;28;20047;-70
2023/12/27 12:34:25;;;;;;;12.32;6.40;;;5.60;99.90;;;;;;5109136;28;20047;-69
2023/12/27 12:36:54;;;;;;;9.73;5.78;;;5.70;99.90;;;;;;5100025;28;20040;-69
2023/12/27 12:39:20;;;;;;;11.30;6.15;;;6.30;99.90;;;;;;5140692;27;20453;-69
2023/12/27 12:41:46;;;;;;;7.68;5.60;;;5.80;99.90;;;;;;5115539;27;20072;-69
2023/12/27 12:44:12;;;;;;;11.38;6.20;;;5.90;99.90;;;;;;5108697;28;20095;-69
2023/12/27 12:46:39;;;;;;;11.43;6.18;;;5.90;99.90;;;;;;5107886;28;20047;-69
2023/12/27 12:49:06;;;;;;;10.77;5.50;;;5.70;99.90;;;;;;5113085;28;20063;-69
2023/12/27 12:51:33;;;;;;;8.57;5.50;;;6.40;99.90;;;;;;5116779;28;20074;-69
2023/12/27 12:53:59;;;;;;;9.77;5.97;;;5.90;99.90;;;;;;5121377;28;20042;-69